Time;durP1;ratioP1;P1;durP2;ratioP2;P2;SDS_P1;SDS_P2;PMS_P1;PMS_P2;Temp;Humidity;BMP_temperature;BMP_pressure;BME280_temperature;BME280_humidity;BME280_pressure;Samples;Min_cycle;Max_cycle;Signal;HPM_P1;HPM_P2
2022/03/15 00:01:23;;;;;;;0.20;0.20;;;3.50;99.90;;;;;;5063174;28;20187;-62
2022/03/15 00:03:49;;;;;;;0.00;0.00;;;3.60;99.90;;;;;;5055200;28;20094;-61
2022/03/15 00:06:15;;;;;;;0.00;0.00;;;3.80;99.90;;;;;;5046907;28;20048;-62
2022/03/15 00:08:43;;;;;;;0.00;0.00;;;3.90;99.90;;;;;;5046125;28;20040;-62
2022/03/15 00:11:09;;;;;;;0.00;0.00;;;4.00;99.90;;;;;;5046589;28;20061;-61
2022/03/15 00:13:38;;;;;;;0.00;0.00;;;4.10;99.90;;;;;;5045854;28;20584;-62
2022/03/15 00:16:06;;;;;;;0.00;0.00;;;4.10;99.90;;;;;;5046353;28;20656;-62
2022/03/15 00:18:31;;;;;;;0.80;0.80;;;4.00;99.90;;;;;;5046848;28;20131;-61
2022/03/15 00:20:58;;;;;;;0.00;0.00;;;4.00;99.90;;;;;;5046147;28;20116;-62
2022/03/15 00:23:25;;;;;;;0.00;0.00;;;3.90;99.90;;;;;;5046192;28;20447;-61
2022/03/15 00:25:51;;;;;;;0.00;0.00;;;3.90;99.90;;;;;;5046238;28;20102;-61
2022/03/15 00:28:18;;;;;;;0.00;0.00;;;3.90;99.90;;;;;;5045586;28;20368;-61
2022/03/15 00:30:43;;;;;;;0.00;0.00;;;3.90;99.90;;;;;;5046113;28;20041;-61
2022/03/15 00:33:10;;;;;;;0.00;0.00;;;3.90;99.90;;;;;;5046083;28;20052;-64
2022/03/15 00:35:36;;;;;;;0.00;0.00;;;3.90;99.90;;;;;;5046372;28;20152;-62
2022/03/15 00:38:02;;;;;;;0.00;0.00;;;4.00;99.90;;;;;;5046382;28;20052;-62
2022/03/15 00:40:27;;;;;;;0.00;0.00;;;3.90;99.90;;;;;;5045968;28;20072;-61
2022/03/15 00:42:53;;;;;;;0.00;0.00;;;3.90;99.90;;;;;;5027270;28;20676;-62
2022/03/15 00:45:22;;;;;;;0.00;0.00;;;3.80;99.90;;;;;;5046146;28;20513;-61
2022/03/15 00:47:49;;;;;;;0.00;0.00;;;3.80;99.90;;;;;;5045672;28;20041;-62
2022/03/15 00:50:15;;;;;;;0.00;0.00;;;3.80;99.90;;;;;;5045948;28;20051;-61
2022/03/15 00:52:41;;;;;;;0.00;0.00;;;3.80;99.90;;;;;;5045594;28;20033;-61
2022/03/15 00:55:07;;;;;;;0.00;0.00;;;3.90;99.90;;;;;;5028664;28;20045;-61
2022/03/15 00:57:33;;;;;;;0.00;0.00;;;3.90;99.90;;;;;;5044756;28;20037;-61
2022/03/15 00:59:59;;;;;;;0.00;0.00;;;3.80;99.90;;;;;;5045435;28;20186;-61
2022/03/15 01:02:24;;;;;;;0.00;0.00;;;3.90;99.90;;;;;;5054071;28;20439;-64
2022/03/15 01:04:50;;;;;;;0.00;0.00;;;3.90;99.90;;;;;;5048403;28;20037;-63
2022/03/15 01:07:16;;;;;;;0.00;0.00;;;3.80;99.90;;;;;;5045588;28;20132;-61
2022/03/15 01:09:42;;;;;;;0.00;0.00;;;3.90;99.90;;;;;;5045058;28;20498;-61
2022/03/15 01:12:08;;;;;;;0.05;0.05;;;3.90;99.90;;;;;;5044927;28;20140;-61
2022/03/15 01:14:35;;;;;;;0.00;0.00;;;3.90;99.90;;;;;;5046180;28;20068;-61
2022/03/15 01:17:02;;;;;;;0.00;0.00;;;4.00;99.90;;;;;;5045659;28;20076;-61
2022/03/15 01:19:28;;;;;;;0.30;0.30;;;3.90;99.90;;;;;;5045857;28;20049;-62
2022/03/15 01:21:53;;;;;;;0.00;0.00;;;3.90;99.90;;;;;;5045210;28;20033;-61
2022/03/15 01:24:20;;;;;;;0.00;0.00;;;4.00;99.90;;;;;;5045159;28;20037;-62
2022/03/15 01:26:46;;;;;;;0.08;0.08;;;4.60;99.90;;;;;;5044357;28;20045;-61
2022/03/15 01:29:12;;;;;;;0.00;0.00;;;5.10;99.90;;;;;;5045711;28;20037;-62
2022/03/15 01:31:37;;;;;;;0.00;0.00;;;4.10;99.90;;;;;;5045153;28;20431;-61
2022/03/15 01:34:03;;;;;;;0.00;0.00;;;3.90;99.90;;;;;;5045135;28;20514;-62
2022/03/15 01:36:30;;;;;;;0.00;0.00;;;4.00;99.90;;;;;;5045267;28;20055;-62
2022/03/15 01:38:57;;;;;;;0.10;0.10;;;4.00;99.90;;;;;;5044900;28;20408;-62
2022/03/15 01:41:23;;;;;;;0.00;0.00;;;4.00;99.90;;;;;;5043680;28;20502;-61
2022/03/15 01:43:49;;;;;;;0.43;0.30;;;3.90;99.90;;;;;;5044629;28;20048;-62
2022/03/15 01:46:16;;;;;;;0.00;0.00;;;3.90;99.90;;;;;;5045250;28;20048;-61
2022/03/15 01:48:42;;;;;;;0.00;0.00;;;3.90;99.90;;;;;;5044243;28;20044;-61
2022/03/15 01:51:13;;;;;;;0.00;0.00;;;3.90;99.90;;;;;;5044801;28;20048;-61
2022/03/15 01:53:39;;;;;;;0.20;0.20;;;3.90;99.90;;;;;;5044779;28;20044;-61
2022/03/15 01:56:05;;;;;;;0.00;0.00;;;3.80;99.90;;;;;;5043688;28;20127;-61
2022/03/15 01:58:31;;;;;;;0.00;0.00;;;3.90;99.90;;;;;;5044747;28;20052;-62
2022/03/15 02:00:56;;;;;;;0.00;0.00;;;3.80;99.90;;;;;;5044657;28;20466;-61
2022/03/15 02:03:23;;;;;;;0.10;0.10;;;3.80;99.90;;;;;;5055489;28;20049;-62
2022/03/15 02:05:48;;;;;;;2.17;0.90;;;3.80;99.90;;;;;;5043470;28;20037;-61
2022/03/15 02:08:16;;;;;;;0.00;0.00;;;3.80;99.90;;;;;;5044887;28;20127;-61
2022/03/15 02:10:43;;;;;;;0.00;0.00;;;3.80;99.90;;;;;;5043798;28;20147;-61
2022/03/15 02:13:11;;;;;;;0.00;0.00;;;4.00;99.90;;;;;;5043832;28;20061;-61
2022/03/15 02:15:37;;;;;;;0.10;0.10;;;3.90;99.90;;;;;;5043936;28;20037;-61
2022/03/15 02:18:04;;;;;;;0.00;0.00;;;3.80;99.90;;;;;;5063523;28;20037;-61
2022/03/15 02:20:31;;;;;;;0.10;0.10;;;4.10;99.90;;;;;;5064243;28;20039;-62
2022/03/15 02:22:57;;;;;;;0.20;0.20;;;3.90;99.90;;;;;;5062660;28;20087;-61
2022/03/15 02:25:24;;;;;;;0.00;0.00;;;3.80;99.90;;;;;;5064295;28;20076;-63
2022/03/15 02:27:50;;;;;;;0.10;0.10;;;3.70;99.90;;;;;;5063096;28;20484;-62
2022/03/15 02:30:15;;;;;;;0.00;0.00;;;3.80;99.90;;;;;;5064375;28;20564;-63
2022/03/15 02:32:42;;;;;;;0.08;0.08;;;4.50;99.90;;;;;;5063361;28;20048;-61
2022/03/15 02:35:09;;;;;;;0.00;0.00;;;3.80;99.90;;;;;;5064148;28;20059;-61
2022/03/15 02:37:34;;;;;;;0.00;0.00;;;3.70;99.90;;;;;;5063822;28;20033;-60
2022/03/15 02:40:00;;;;;;;0.00;0.00;;;3.70;99.90;;;;;;5064134;28;20394;-62
2022/03/15 02:42:26;;;;;;;0.00;0.00;;;3.70;99.90;;;;;;5063264;28;20510;-61
2022/03/15 02:44:52;;;;;;;0.00;0.00;;;3.70;99.90;;;;;;5063757;28;20041;-61
2022/03/15 02:47:17;;;;;;;0.00;0.00;;;3.70;99.90;;;;;;5064045;28;20051;-62
2022/03/15 02:49:43;;;;;;;0.00;0.00;;;3.60;99.90;;;;;;5062537;28;20040;-61
2022/03/15 02:52:10;;;;;;;0.00;0.00;;;3.50;99.90;;;;;;5064048;28;20044;-61
2022/03/15 02:54:40;;;;;;;0.00;0.00;;;3.50;99.90;;;;;;5045481;28;20213;-61
2022/03/15 02:57:07;;;;;;;0.00;0.00;;;3.50;99.90;;;;;;5062570;28;20044;-62
2022/03/15 02:59:33;;;;;;;0.00;0.00;;;3.40;99.90;;;;;;5063974;28;20044;-61
2022/03/15 03:01:59;;;;;;;0.00;0.00;;;3.30;99.90;;;;;;5056662;28;20037;-61
2022/03/15 03:04:26;;;;;;;0.00;0.00;;;3.10;99.90;;;;;;5049388;28;20163;-61
2022/03/15 03:06:52;;;;;;;0.00;0.00;;;3.10;99.90;;;;;;5042820;28;20824;-61
2022/03/15 03:09:18;;;;;;;0.00;0.00;;;3.20;99.90;;;;;;5025969;28;20044;-61
2022/03/15 03:11:44;;;;;;;0.00;0.00;;;3.30;99.90;;;;;;5042216;28;20531;-61
2022/03/15 03:14:13;;;;;;;0.00;0.00;;;3.30;99.90;;;;;;5043367;28;20056;-62
2022/03/15 03:16:40;;;;;;;0.00;0.00;;;3.30;99.90;;;;;;5025375;28;20056;-62
2022/03/15 03:19:08;;;;;;;0.00;0.00;;;3.30;99.90;;;;;;5043241;28;20116;-62
2022/03/15 03:21:36;;;;;;;0.00;0.00;;;3.30;99.90;;;;;;5025313;28;20049;-62
2022/03/15 03:24:05;;;;;;;0.00;0.00;;;3.50;99.90;;;;;;5043221;28;20036;-62
2022/03/15 03:26:32;;;;;;;0.00;0.00;;;3.50;99.90;;;;;;5025115;28;20052;-62
2022/03/15 03:28:58;;;;;;;0.00;0.00;;;3.60;99.90;;;;;;5042212;28;20471;-63
2022/03/15 03:31:24;;;;;;;0.00;0.00;;;3.60;99.90;;;;;;5043058;28;20045;-62
2022/03/15 03:33:50;;;;;;;0.00;0.00;;;3.70;99.90;;;;;;5042015;28;20052;-62
2022/03/15 03:36:16;;;;;;;0.00;0.00;;;3.70;99.90;;;;;;5042861;28;20052;-62
2022/03/15 03:38:42;;;;;;;0.00;0.00;;;3.70;99.90;;;;;;5042116;28;20056;-62
2022/03/15 03:41:08;;;;;;;0.00;0.00;;;3.70;99.90;;;;;;5042520;28;20063;-62
2022/03/15 03:43:34;;;;;;;0.00;0.00;;;3.70;99.90;;;;;;5043333;28;20037;-62
2022/03/15 03:46:00;;;;;;;0.00;0.00;;;3.70;99.90;;;;;;5042836;28;20045;-63
2022/03/15 03:48:26;;;;;;;0.00;0.00;;;3.70;99.90;;;;;;5042499;28;20103;-62
2022/03/15 03:50:53;;;;;;;0.00;0.00;;;3.70;99.90;;;;;;5042603;28;20654;-62
2022/03/15 03:53:21;;;;;;;0.00;0.00;;;3.80;99.90;;;;;;5042974;28;20476;-62
2022/03/15 03:55:47;;;;;;;0.00;0.00;;;3.80;99.90;;;;;;5006924;28;20053;-62
2022/03/15 03:58:13;;;;;;;0.00;0.00;;;3.80;99.90;;;;;;5042678;28;20045;-62
2022/03/15 04:00:38;;;;;;;0.00;0.00;;;3.80;99.90;;;;;;5042085;28;20037;-60
2022/03/15 04:03:05;;;;;;;0.00;0.00;;;3.80;99.90;;;;;;5054153;28;20103;-62
2022/03/15 04:05:33;;;;;;;0.00;0.00;;;3.70;99.90;;;;;;5042981;28;20068;-63
2022/03/15 04:07:59;;;;;;;0.00;0.00;;;3.70;99.90;;;;;;5042191;28;20049;-62
2022/03/15 04:10:28;;;;;;;0.00;0.00;;;3.70;99.90;;;;;;5042489;28;20092;-62
2022/03/15 04:12:55;;;;;;;0.00;0.00;;;3.60;99.90;;;;;;5040900;28;20053;-62
2022/03/15 04:15:21;;;;;;;0.00;0.00;;;3.60;99.90;;;;;;5042684;28;20044;-62
2022/03/15 04:17:48;;;;;;;0.00;0.00;;;3.50;99.90;;;;;;5041980;28;20041;-61
2022/03/15 04:20:13;;;;;;;0.00;0.00;;;3.50;99.90;;;;;;5024568;28;20461;-61
2022/03/15 04:22:39;;;;;;;0.00;0.00;;;3.40;99.90;;;;;;5042076;28;20041;-61
2022/03/15 04:25:05;;;;;;;0.00;0.00;;;3.40;99.90;;;;;;5042353;28;20484;-61
2022/03/15 04:27:31;;;;;;;0.00;0.00;;;3.50;99.90;;;;;;5042133;28;20041;-61
2022/03/15 04:29:57;;;;;;;0.00;0.00;;;3.50;99.90;;;;;;5041797;28;20048;-61
2022/03/15 04:32:23;;;;;;;0.00;0.00;;;3.50;99.90;;;;;;5042528;28;20458;-61
2022/03/15 04:34:49;;;;;;;0.00;0.00;;;3.60;99.90;;;;;;5042107;28;20048;-61
2022/03/15 04:37:15;;;;;;;0.00;0.00;;;3.50;99.90;;;;;;5041718;28;20037;-61
2022/03/15 04:39:40;;;;;;;0.00;0.00;;;3.50;99.90;;;;;;5042253;28;20045;-61
2022/03/15 04:42:06;;;;;;;0.00;0.00;;;3.80;99.90;;;;;;5041515;28;20071;-61
2022/03/15 04:44:33;;;;;;;0.00;0.00;;;3.60;99.90;;;;;;5043621;28;20041;-61
2022/03/15 04:46:59;;;;;;;0.00;0.00;;;4.10;99.90;;;;;;5044927;28;20155;-63
2022/03/15 04:49:25;;;;;;;0.00;0.00;;;3.70;99.90;;;;;;5046210;28;20404;-62
2022/03/15 04:51:51;;;;;;;0.00;0.00;;;3.80;99.90;;;;;;5045520;28;20045;-61
2022/03/15 04:54:16;;;;;;;0.17;0.17;;;3.80;99.90;;;;;;5045735;28;20047;-63
2022/03/15 04:56:43;;;;;;;0.00;0.00;;;3.80;99.90;;;;;;5026949;28;20549;-60
2022/03/15 04:59:08;;;;;;;0.00;0.00;;;3.90;99.90;;;;;;5045842;28;20407;-62
2022/03/15 05:01:34;;;;;;;0.00;0.00;;;3.90;99.90;;;;;;5048395;28;20045;-62
2022/03/15 05:04:01;;;;;;;0.00;0.00;;;3.90;99.90;;;;;;5054447;28;20047;-62
2022/03/15 05:06:26;;;;;;;0.00;0.00;;;3.90;99.90;;;;;;5046027;28;20049;-64
2022/03/15 05:08:52;;;;;;;0.00;0.00;;;3.90;99.90;;;;;;5045144;28;20599;-63
2022/03/15 05:11:18;;;;;;;0.00;0.00;;;4.10;99.90;;;;;;5044959;28;20049;-61
2022/03/15 05:13:46;;;;;;;0.00;0.00;;;4.10;99.90;;;;;;5044763;28;20052;-61
2022/03/15 05:16:21;;;;;;;0.00;0.00;;;4.00;99.90;;;;;;5045894;28;20468;-62
2022/03/15 05:18:53;;;;;;;0.00;0.00;;;4.50;99.90;;;;;;5044931;28;20076;-61
2022/03/15 05:21:23;;;;;;;0.00;0.00;;;4.10;99.90;;;;;;5045620;28;20052;-60
2022/03/15 05:23:49;;;;;;;0.00;0.00;;;4.20;99.90;;;;;;5045262;28;20124;-60
2022/03/15 05:26:16;;;;;;;9.23;3.72;;;4.30;99.90;;;;;;5044630;28;20049;-61
2022/03/15 05:28:43;;;;;;;0.00;0.00;;;4.40;99.90;;;;;;5044967;28;20045;-62
2022/03/15 05:31:09;;;;;;;0.10;0.10;;;4.40;99.90;;;;;;5027426;28;20404;-62
2022/03/15 05:33:35;;;;;;;0.05;0.05;;;4.50;99.90;;;;;;5045624;28;20112;-59
2022/03/15 05:36:01;;;;;;;0.05;0.05;;;4.50;99.90;;;;;;5044698;28;20087;-61
2022/03/15 05:38:27;;;;;;;0.00;0.00;;;4.50;99.90;;;;;;5045173;28;20462;-62
2022/03/15 05:40:53;;;;;;;0.00;0.00;;;4.60;99.90;;;;;;5043494;28;20133;-61
2022/03/15 05:43:19;;;;;;;0.00;0.00;;;4.70;99.90;;;;;;5045028;28;20063;-62
2022/03/15 05:45:45;;;;;;;0.25;0.25;;;4.70;99.90;;;;;;5044344;28;20515;-62
2022/03/15 05:48:11;;;;;;;0.00;0.00;;;4.60;99.90;;;;;;5045165;28;20049;-62
2022/03/15 05:50:37;;;;;;;0.00;0.00;;;5.20;99.90;;;;;;5044388;28;20178;-61
2022/03/15 05:53:03;;;;;;;0.00;0.00;;;4.70;99.90;;;;;;5044638;28;20730;-62
2022/03/15 05:55:32;;;;;;;0.00;0.00;;;4.70;99.90;;;;;;5043462;28;20496;-61
2022/03/15 05:57:59;;;;;;;0.00;0.00;;;4.70;99.90;;;;;;5044179;28;20048;-62
2022/03/15 06:00:26;;;;;;;0.00;0.00;;;5.50;99.90;;;;;;5043993;28;20412;-61
2022/03/15 06:02:52;;;;;;;0.00;0.00;;;4.70;99.90;;;;;;5055334;28;20495;-62
2022/03/15 06:05:18;;;;;;;0.00;0.00;;;4.60;99.90;;;;;;5044598;28;20134;-62
2022/03/15 06:07:48;;;;;;;0.03;0.03;;;5.00;99.90;;;;;;5044352;28;20099;-62
2022/03/15 06:10:15;;;;;;;0.00;0.00;;;4.70;99.90;;;;;;5043924;28;20045;-62
2022/03/15 06:12:42;;;;;;;0.15;0.15;;;4.60;99.90;;;;;;5043693;28;20056;-62
2022/03/15 06:15:08;;;;;;;0.00;0.00;;;4.30;99.90;;;;;;5044694;28;20091;-62
2022/03/15 06:17:44;;;;;;;0.00;0.00;;;4.50;99.90;;;;;;5044196;28;20048;-63
2022/03/15 06:20:12;;;;;;;0.00;0.00;;;4.60;99.90;;;;;;5044192;28;20137;-62
2022/03/15 06:22:38;;;;;;;0.00;0.00;;;4.60;99.90;;;;;;5043942;28;20495;-62
2022/03/15 06:25:04;;;;;;;0.00;0.00;;;4.50;99.90;;;;;;5044152;28;20217;-63
2022/03/15 06:27:30;;;;;;;0.05;0.05;;;4.50;99.90;;;;;;5043894;28;20056;-61
2022/03/15 06:29:56;;;;;;;0.05;0.05;;;4.60;99.90;;;;;;5044094;28;20048;-62
2022/03/15 06:32:22;;;;;;;0.70;0.40;;;4.60;99.90;;;;;;5044127;28;20060;-62
2022/03/15 06:34:49;;;;;;;0.00;0.00;;;4.60;99.90;;;;;;5043335;28;20439;-62
2022/03/15 06:37:15;;;;;;;0.00;0.00;;;4.70;99.90;;;;;;5043803;28;20203;-62
2022/03/15 06:39:41;;;;;;;0.00;0.00;;;4.60;99.90;;;;;;5043541;28;20067;-62
2022/03/15 06:42:11;;;;;;;0.00;0.00;;;4.60;99.90;;;;;;5043024;28;20122;-62
2022/03/15 06:44:39;;;;;;;0.00;0.00;;;4.60;99.90;;;;;;5043820;28;20045;-62
2022/03/15 06:47:05;;;;;;;0.00;0.00;;;4.60;99.90;;;;;;5025741;28;20052;-62
2022/03/15 06:49:31;;;;;;;0.47;0.47;;;4.70;99.90;;;;;;5043755;28;20049;-62
2022/03/15 06:51:57;;;;;;;0.00;0.00;;;4.70;99.90;;;;;;5043344;28;20052;-62
2022/03/15 06:54:22;;;;;;;0.03;0.03;;;4.80;99.90;;;;;;5044025;28;20435;-63
2022/03/15 06:56:49;;;;;;;0.00;0.00;;;4.80;99.90;;;;;;5042444;28;20056;-62
2022/03/15 06:59:15;;;;;;;0.00;0.00;;;4.80;99.90;;;;;;5043513;28;20474;-62
2022/03/15 07:01:40;;;;;;;0.00;0.00;;;4.90;99.90;;;;;;5045385;28;20052;-62
2022/03/15 07:04:06;;;;;;;0.00;0.00;;;4.90;99.90;;;;;;5052525;28;20033;-62
2022/03/15 07:06:32;;;;;;;0.00;0.00;;;5.00;99.90;;;;;;5043311;28;20052;-61
2022/03/15 07:08:57;;;;;;;0.00;0.00;;;5.00;99.90;;;;;;5025108;28;20044;-62
2022/03/15 07:11:23;;;;;;;0.00;0.00;;;5.10;99.90;;;;;;5042650;28;20443;-63
2022/03/15 07:13:48;;;;;;;0.00;0.00;;;5.20;99.90;;;;;;5025166;28;20037;-62
2022/03/15 07:16:15;;;;;;;0.00;0.00;;;5.20;99.90;;;;;;5042845;28;20056;-62
2022/03/15 07:18:41;;;;;;;0.00;0.00;;;5.30;99.90;;;;;;5042714;28;20084;-61
2022/03/15 07:21:07;;;;;;;0.00;0.00;;;5.20;99.90;;;;;;5043241;28;20093;-61
2022/03/15 07:23:32;;;;;;;0.00;0.00;;;5.30;99.90;;;;;;5043687;28;20068;-62
2022/03/15 07:25:58;;;;;;;0.00;0.00;;;5.20;99.90;;;;;;5041671;28;20047;-62
2022/03/15 07:28:23;;;;;;;0.00;0.00;;;5.30;99.90;;;;;;5043127;28;20094;-62
2022/03/15 07:30:49;;;;;;;0.00;0.00;;;5.30;99.90;;;;;;5042639;28;20522;-61
2022/03/15 07:33:15;;;;;;;0.00;0.00;;;6.00;99.90;;;;;;5042602;28;20073;-62
2022/03/15 07:35:40;;;;;;;0.00;0.00;;;5.20;99.90;;;;;;5042576;28;20049;-61
2022/03/15 07:38:06;;;;;;;0.20;0.20;;;5.10;99.90;;;;;;5042947;28;20642;-61
2022/03/15 07:40:31;;;;;;;0.00;0.00;;;5.20;99.90;;;;;;5042433;28;20044;-61
2022/03/15 07:42:58;;;;;;;0.00;0.00;;;5.20;99.90;;;;;;5024700;28;20128;-61
2022/03/15 07:45:24;;;;;;;0.00;0.00;;;5.20;99.90;;;;;;5042560;28;20067;-61
2022/03/15 07:47:50;;;;;;;0.00;0.00;;;5.20;99.90;;;;;;5024615;28;20359;-62
2022/03/15 07:50:17;;;;;;;0.00;0.00;;;5.20;99.90;;;;;;5042059;28;20102;-63
2022/03/15 07:52:43;;;;;;;0.00;0.00;;;5.30;99.90;;;;;;5042438;28;20052;-61
2022/03/15 07:55:09;;;;;;;0.00;0.00;;;5.30;99.90;;;;;;5042344;28;20162;-61
2022/03/15 07:57:35;;;;;;;0.00;0.00;;;5.30;99.90;;;;;;5042437;28;20381;-60
2022/03/15 08:00:01;;;;;;;0.00;0.00;;;5.40;99.90;;;;;;5042237;28;20207;-62
2022/03/15 08:02:26;;;;;;;0.00;0.00;;;5.60;99.90;;;;;;5051227;28;20032;-61
2022/03/15 08:04:53;;;;;;;0.00;0.00;;;5.40;99.90;;;;;;5044919;28;20125;-63
2022/03/15 08:07:24;;;;;;;0.00;0.00;;;6.70;99.90;;;;;;5042440;28;20060;-63
2022/03/15 08:09:50;;;;;;;0.00;0.00;;;5.40;99.90;;;;;;5042105;28;20041;-61
2022/03/15 08:12:17;;;;;;;0.17;0.17;;;5.50;99.90;;;;;;5041580;28;20275;-62
2022/03/15 08:14:44;;;;;;;0.00;0.00;;;5.40;99.90;;;;;;5041794;28;20098;-61
2022/03/15 08:17:10;;;;;;;0.00;0.00;;;5.50;99.90;;;;;;5042148;28;20049;-62
2022/03/15 08:19:35;;;;;;;0.00;0.00;;;5.60;99.90;;;;;;5043504;28;20052;-62
2022/03/15 08:22:02;;;;;;;0.00;0.00;;;5.60;99.90;;;;;;5046730;28;20037;-63
2022/03/15 08:24:28;;;;;;;0.00;0.00;;;5.60;99.90;;;;;;5033220;28;20123;-62
2022/03/15 08:26:55;;;;;;;0.13;0.10;;;5.70;99.90;;;;;;5057131;28;20037;-62
2022/03/15 08:29:21;;;;;;;0.00;0.00;;;5.80;99.90;;;;;;5054391;28;20041;-61
2022/03/15 08:31:47;;;;;;;0.00;0.00;;;5.80;99.90;;;;;;5064965;28;20059;-62
2022/03/15 08:34:12;;;;;;;0.00;0.00;;;5.80;99.90;;;;;;5063581;28;20064;-62
2022/03/15 08:36:38;;;;;;;0.00;0.00;;;5.80;99.90;;;;;;5062885;28;20076;-59
2022/03/15 08:39:04;;;;;;;0.00;0.00;;;7.10;99.90;;;;;;5066314;28;20068;-62
2022/03/15 08:41:30;;;;;;;0.00;0.00;;;6.00;99.90;;;;;;5065496;28;20055;-62
2022/03/15 08:43:56;;;;;;;0.20;0.20;;;7.20;99.90;;;;;;5047722;28;20045;-62
2022/03/15 08:46:21;;;;;;;0.08;0.08;;;6.10;99.90;;;;;;5066067;28;20041;-62
2022/03/15 08:48:47;;;;;;;0.00;0.00;;;6.10;99.90;;;;;;5048255;28;20075;-62
2022/03/15 08:51:13;;;;;;;0.00;0.00;;;6.20;99.90;;;;;;5047511;28;20400;-62
2022/03/15 08:53:38;;;;;;;0.00;0.00;;;6.20;99.90;;;;;;5065646;28;20033;-61
2022/03/15 08:56:05;;;;;;;0.10;0.10;;;6.20;99.90;;;;;;5065642;28;20209;-60
2022/03/15 08:58:31;;;;;;;0.00;0.00;;;6.20;99.90;;;;;;5066638;28;20048;-62
2022/03/15 09:00:57;;;;;;;0.00;0.00;;;6.30;99.90;;;;;;5062991;28;20058;-62
2022/03/15 09:03:22;;;;;;;0.00;0.00;;;6.30;99.90;;;;;;5035628;28;20059;-63
2022/03/15 09:05:48;;;;;;;0.00;0.00;;;6.40;99.90;;;;;;5045284;28;20072;-62
2022/03/15 09:08:14;;;;;;;0.00;0.00;;;6.80;99.90;;;;;;5045242;28;20044;-63
2022/03/15 09:10:40;;;;;;;0.00;0.00;;;6.30;99.90;;;;;;5044502;28;20194;-62
2022/03/15 09:13:09;;;;;;;0.00;0.00;;;6.30;99.90;;;;;;5045412;28;20420;-62
2022/03/15 09:15:35;;;;;;;0.00;0.00;;;6.40;99.90;;;;;;5045115;28;20033;-62
2022/03/15 09:18:02;;;;;;;0.00;0.00;;;7.10;99.90;;;;;;5045112;28;20045;-62
2022/03/15 09:20:28;;;;;;;0.10;0.10;;;6.50;99.90;;;;;;5027809;28;20036;-62
2022/03/15 09:22:54;;;;;;;0.00;0.00;;;6.40;99.90;;;;;;5044825;28;20068;-63
2022/03/15 09:25:20;;;;;;;0.00;0.00;;;6.50;99.90;;;;;;5044257;28;20095;-64
2022/03/15 09:27:47;;;;;;;0.00;0.00;;;6.60;99.90;;;;;;5044895;28;20128;-64
2022/03/15 09:30:13;;;;;;;0.00;0.00;;;6.60;99.90;;;;;;5044587;28;20048;-63
2022/03/15 09:32:39;;;;;;;0.10;0.10;;;6.40;99.90;;;;;;5044920;28;20048;-61
2022/03/15 09:35:05;;;;;;;0.00;0.00;;;6.80;99.90;;;;;;5044583;28;20038;-60
2022/03/15 09:37:31;;;;;;;0.20;0.20;;;6.50;99.90;;;;;;5045384;28;20174;-62
2022/03/15 09:39:57;;;;;;;0.10;0.10;;;6.60;99.90;;;;;;5044095;28;20049;-63
2022/03/15 09:42:24;;;;;;;0.03;0.03;;;6.70;99.90;;;;;;5044704;28;20118;-63
2022/03/15 09:44:52;;;;;;;0.00;0.00;;;6.70;99.90;;;;;;5044473;28;20095;-63
2022/03/15 09:47:23;;;;;;;0.00;0.00;;;6.90;99.90;;;;;;5044742;28;20041;-63
2022/03/15 09:49:51;;;;;;;0.20;0.20;;;6.90;99.90;;;;;;5044129;28;20455;-64
2022/03/15 09:52:18;;;;;;;0.00;0.00;;;6.90;99.90;;;;;;5044953;28;20041;-62
2022/03/15 09:54:45;;;;;;;0.00;0.00;;;7.00;99.90;;;;;;5043947;28;20088;-63
2022/03/15 09:57:11;;;;;;;0.00;0.00;;;7.00;99.90;;;;;;5044828;28;20060;-63
2022/03/15 09:59:37;;;;;;;0.13;0.13;;;7.00;99.90;;;;;;5044043;28;20037;-62
2022/03/15 10:02:03;;;;;;;0.00;0.00;;;8.50;99.90;;;;;;5050435;28;20078;-63
2022/03/15 10:04:29;;;;;;;0.10;0.00;;;7.10;99.90;;;;;;5050448;28;20095;-63
2022/03/15 10:06:55;;;;;;;0.05;0.05;;;7.10;99.90;;;;;;5043596;28;20056;-64
2022/03/15 10:09:22;;;;;;;0.38;0.38;;;7.10;99.90;;;;;;5044663;28;20399;-66
2022/03/15 10:11:48;;;;;;;0.00;0.00;;;7.20;99.90;;;;;;5043338;28;20059;-64
2022/03/15 10:14:17;;;;;;;0.00;0.00;;;7.20;99.90;;;;;;5044571;28;20143;-62
2022/03/15 10:16:43;;;;;;;0.10;0.10;;;7.30;99.90;;;;;;5043837;28;20063;-61
2022/03/15 10:19:14;;;;;;;0.22;0.10;;;7.30;99.90;;;;;;5026514;28;20053;-63
2022/03/15 10:21:52;;;;;;;0.00;0.00;;;7.40;99.90;;;;;;5043662;28;20107;-63
2022/03/15 10:24:19;;;;;;;0.00;0.00;;;7.40;99.90;;;;;;5044164;28;20032;-64
2022/03/15 10:26:47;;;;;;;0.00;0.00;;;7.50;99.90;;;;;;5042765;28;20518;-64
2022/03/15 10:29:14;;;;;;;0.10;0.10;;;7.50;99.90;;;;;;5044161;28;20037;-63
2022/03/15 10:31:40;;;;;;;0.10;0.10;;;7.70;99.90;;;;;;5026084;28;20037;-63
2022/03/15 10:34:08;;;;;;;0.10;0.10;;;7.70;99.90;;;;;;5044044;28;20373;-63
2022/03/15 10:36:43;;;;;;;0.00;0.00;;;7.70;99.90;;;;;;5026638;28;20478;-63
2022/03/15 10:39:12;;;;;;;0.20;0.20;;;7.70;99.90;;;;;;5044172;28;20407;-64
2022/03/15 10:41:45;;;;;;;0.00;0.00;;;7.80;99.90;;;;;;5042306;28;20581;-65
2022/03/15 10:44:33;;;;;;;0.00;0.00;;;8.00;99.90;;;;;;5025342;28;20052;-64
2022/03/15 10:47:17;;;;;;;0.10;0.10;;;8.00;99.90;;;;;;5043122;28;20139;-64
2022/03/15 10:49:51;;;;;;;0.00;0.00;;;8.00;99.90;;;;;;5025093;28;20091;-63
2022/03/15 10:52:40;;;;;;;0.45;0.30;;;9.60;99.90;;;;;;5043875;28;20073;-64
2022/03/15 10:55:10;;;;;;;0.20;0.20;;;8.20;99.90;;;;;;5043113;28;20485;-64
2022/03/15 10:57:56;;;;;;;0.13;0.13;;;8.30;99.90;;;;;;5043344;28;20036;-66
2022/03/15 11:00:27;;;;;;;0.28;0.17;;;8.40;99.90;;;;;;5042916;28;20064;-65
2022/03/15 11:02:53;;;;;;;0.20;0.20;;;8.40;99.90;;;;;;5054270;28;20107;-66
2022/03/15 11:05:29;;;;;;;0.10;0.10;;;8.40;99.90;;;;;;5043225;28;20045;-65
2022/03/15 11:07:55;;;;;;;0.10;0.10;;;8.50;99.90;;;;;;5043246;28;20099;-63
2022/03/15 11:10:21;;;;;;;0.00;0.00;;;8.30;99.90;;;;;;5042212;28;20049;-63
2022/03/15 11:12:54;;;;;;;0.10;0.10;;;8.50;99.90;;;;;;5043158;28;20049;-64
2022/03/15 11:15:28;;;;;;;0.00;0.00;;;8.60;99.90;;;;;;5043416;28;20055;-64
2022/03/15 11:18:00;;;;;;;0.10;0.10;;;8.60;99.90;;;;;;5043177;28;20496;-64
2022/03/15 11:20:28;;;;;;;0.38;0.20;;;9.10;99.90;;;;;;5042683;28;20049;-63
2022/03/15 11:22:59;;;;;;;0.98;0.73;;;8.80;99.90;;;;;;5042476;28;20970;-58
2022/03/15 11:25:33;;;;;;;0.25;0.25;;;8.90;99.90;;;;;;5008429;28;20494;-62
2022/03/15 11:27:59;;;;;;;0.07;0.07;;;9.00;99.90;;;;;;5024440;28;20098;-62
2022/03/15 11:30:26;;;;;;;0.00;0.00;;;9.10;99.90;;;;;;5042883;28;20049;-61
2022/03/15 11:32:53;;;;;;;0.52;0.30;;;9.20;99.90;;;;;;5042615;28;20032;-64
2022/03/15 11:35:22;;;;;;;0.05;0.05;;;9.30;99.90;;;;;;5041895;28;20116;-65
2022/03/15 11:37:48;;;;;;;0.00;0.00;;;9.30;99.90;;;;;;5042697;28;20049;-65
2022/03/15 11:40:14;;;;;;;0.08;0.08;;;9.30;99.90;;;;;;5042377;28;20052;-63
2022/03/15 11:42:44;;;;;;;0.03;0.03;;;9.40;99.90;;;;;;5042758;28;20137;-65
2022/03/15 11:45:36;;;;;;;0.00;0.00;;;9.50;99.90;;;;;;5042262;28;20037;-63
2022/03/15 11:48:23;;;;;;;0.00;0.00;;;9.50;99.90;;;;;;5042945;28;20049;-63
2022/03/15 11:51:08;;;;;;;0.60;0.60;;;9.60;99.90;;;;;;5042394;28;20124;-63
2022/03/15 11:53:55;;;;;;;0.85;0.55;;;9.60;99.90;;;;;;5042453;28;20067;-65
2022/03/15 11:56:39;;;;;;;0.20;0.10;;;9.70;99.90;;;;;;5024281;28;20049;-64
2022/03/15 11:59:04;;;;;;;0.00;0.00;;;9.80;99.90;;;;;;5042736;28;20052;-65
2022/03/15 12:01:33;;;;;;;0.00;0.00;;;9.80;99.90;;;;;;5027539;28;20144;-63
2022/03/15 12:03:59;;;;;;;0.10;0.10;;;9.80;99.90;;;;;;5050906;28;20049;-63
2022/03/15 12:06:27;;;;;;;0.00;0.00;;;9.90;99.90;;;;;;5042121;28;20087;-63
2022/03/15 12:08:56;;;;;;;0.30;0.30;;;10.10;99.90;;;;;;5042159;28;20056;-64
2022/03/15 12:11:36;;;;;;;0.35;0.35;;;9.90;99.90;;;;;;5041617;28;20079;-64
2022/03/15 12:14:16;;;;;;;0.00;0.00;;;10.00;99.90;;;;;;5042875;28;20587;-64
2022/03/15 12:16:53;;;;;;;0.17;0.17;;;10.10;99.90;;;;;;5041757;28;20036;-63
2022/03/15 12:19:35;;;;;;;0.43;0.43;;;10.20;99.90;;;;;;5042759;28;20037;-61
2022/03/15 12:22:03;;;;;;;0.20;0.20;;;10.20;99.90;;;;;;5042613;28;20051;-63
2022/03/15 12:24:36;;;;;;;0.30;0.22;;;10.30;99.90;;;;;;5041253;28;20774;-63
2022/03/15 12:27:10;;;;;;;0.00;0.00;;;10.50;99.90;;;;;;5042545;28;20419;-61
2022/03/15 12:29:39;;;;;;;0.00;0.00;;;10.40;99.90;;;;;;5042355;28;20045;-61
2022/03/15 12:32:17;;;;;;;0.22;0.22;;;10.30;99.90;;;;;;5042313;28;20499;-60
2022/03/15 12:34:45;;;;;;;0.00;0.00;;;10.30;99.90;;;;;;5042387;28;20040;-61
2022/03/15 12:37:11;;;;;;;0.00;0.00;;;10.60;99.90;;;;;;5042110;28;20072;-62
2022/03/15 12:39:37;;;;;;;0.00;0.00;;;10.40;99.90;;;;;;5041909;28;21383;-62
2022/03/15 12:42:11;;;;;;;0.08;0.08;;;10.40;99.90;;;;;;5042503;28;20041;-60
2022/03/15 12:44:46;;;;;;;0.07;0.07;;;10.40;99.90;;;;;;5042289;28;20112;-62
2022/03/15 12:47:15;;;;;;;0.00;0.00;;;10.50;99.90;;;;;;5042160;28;20311;-63
2022/03/15 12:49:42;;;;;;;0.10;0.10;;;10.40;99.90;;;;;;5024394;28;20036;-62
2022/03/15 12:52:15;;;;;;;0.00;0.00;;;10.40;99.90;;;;;;5042296;28;20131;-61
2022/03/15 12:54:44;;;;;;;0.00;0.00;;;10.40;99.90;;;;;;5041267;28;20049;-61
2022/03/15 12:57:14;;;;;;;0.20;0.20;;;10.40;99.90;;;;;;5024553;28;20048;-62